Time;durP1;ratioP1;P1;durP2;ratioP2;P2;SDS_P1;SDS_P2;PMS_P1;PMS_P2;Temp;Humidity;BMP_temperature;BMP_pressure;BME280_temperature;BME280_humidity;BME280_pressure;Samples;Min_cycle;Max_cycle;Signal;HPM_P1;HPM_P2
2022/03/09 00:02:21;;;;;;;;;;;0.20;99.90;;;;;;5117431;28;19924;-60
2022/03/09 00:04:47;;;;;;;;;;;0.20;99.90;;;;;;5116347;28;20277;-60
2022/03/09 00:07:12;;;;;;;;;;;0.20;99.90;;;;;;5116893;28;19928;-60
2022/03/09 00:09:38;;;;;;;;;;;0.10;99.90;;;;;;5098763;28;19934;-61
2022/03/09 00:12:04;;;;;;;;;;;0.10;99.90;;;;;;5115902;28;19923;-61
2022/03/09 00:14:30;;;;;;;;;;;0.20;99.90;;;;;;5116267;28;20397;-60
2022/03/09 00:16:55;;;;;;;;;;;0.10;99.90;;;;;;5098522;28;19920;-60
2022/03/09 00:19:21;;;;;;;;;;;0.10;99.90;;;;;;5115863;28;19924;-61
2022/03/09 00:21:47;;;;;;;;;;;0.10;99.90;;;;;;5116057;28;19930;-60
2022/03/09 00:24:14;;;;;;;;;;;0.10;99.90;;;;;;5116706;28;19924;-60
2022/03/09 00:26:40;;;;;;;;;;;0.00;99.90;;;;;;5115753;28;19924;-60
2022/03/09 00:29:09;;;;;;;;;;;0.00;99.90;;;;;;5115681;28;19923;-60
2022/03/09 00:31:34;;;;;;;;;;;0.00;99.90;;;;;;5116300;28;20293;-60
2022/03/09 00:34:00;;;;;;;;;;;-0.10;99.90;;;;;;5115985;28;20015;-60
2022/03/09 00:36:26;;;;;;;;;;;-0.10;99.90;;;;;;5115122;28;19931;-61
2022/03/09 00:38:51;;;;;;;;;;;-0.10;99.90;;;;;;5116883;28;20373;-60
2022/03/09 00:41:17;;;;;;;;;;;-0.20;99.90;;;;;;5115465;28;19924;-60
2022/03/09 00:43:43;;;;;;;;;;;-0.30;99.90;;;;;;5094634;28;19928;-60
2022/03/09 00:46:08;;;;;;;;;;;-0.40;99.90;;;;;;5095359;28;19924;-60
2022/03/09 00:48:34;;;;;;;;;;;-0.40;99.90;;;;;;5095839;28;19924;-60
2022/03/09 00:51:00;;;;;;;;;;;-0.40;99.90;;;;;;5115631;28;19927;-60
2022/03/09 00:53:25;;;;;;;;;;;-0.50;99.90;;;;;;5115602;28;19930;-60
2022/03/09 00:55:51;;;;;;;;;;;-0.50;99.90;;;;;;5115893;28;19920;-60
2022/03/09 00:58:17;;;;;;;;;;;-0.50;99.90;;;;;;5097428;28;19924;-60
2022/03/09 01:00:42;;;;;;;;;;;-0.50;99.90;;;;;;5115429;28;19928;-60
2022/03/09 01:03:08;;;;;;;;;;;-0.50;99.90;;;;;;5116034;28;19920;-60
2022/03/09 01:05:33;;;;;;;;;;;-0.40;99.90;;;;;;5115752;28;19930;-60
2022/03/09 01:08:00;;;;;;;;;;;-0.30;99.90;;;;;;5114868;28;19924;-60
2022/03/09 01:10:25;;;;;;;;;;;-0.30;99.90;;;;;;5115602;28;19924;-60
2022/03/09 01:12:51;;;;;;;;;;;-0.30;99.90;;;;;;5115246;28;19923;-61
2022/03/09 01:15:17;;;;;;;;;;;-0.40;99.90;;;;;;5114995;28;20009;-60
2022/03/09 01:17:42;;;;;;;;;;;-0.40;99.90;;;;;;5115888;28;20404;-60
2022/03/09 01:20:09;;;;;;;;;;;-0.50;99.90;;;;;;5113950;28;19924;-60
2022/03/09 01:22:35;;;;;;;;;;;-0.60;99.90;;;;;;5115077;28;19924;-60
2022/03/09 01:25:00;;;;;;;;;;;-0.70;99.90;;;;;;5115141;28;19976;-60
2022/03/09 01:27:26;;;;;;;;;;;-0.70;99.90;;;;;;5115429;28;19931;-60
2022/03/09 01:29:51;;;;;;;;;;;-0.80;99.90;;;;;;5114855;28;19924;-60
2022/03/09 01:32:19;;;;;;;;;;;-0.70;99.90;;;;;;5115764;28;20369;-61
2022/03/09 01:34:45;;;;;;;;;;;-0.80;99.90;;;;;;5114841;28;20022;-61
2022/03/09 01:37:11;;;;;;;;;;;-0.80;99.90;;;;;;5114923;28;20003;-60
2022/03/09 01:39:36;;;;;;;;;;;-0.80;99.90;;;;;;5115488;28;20369;-60
2022/03/09 01:42:02;;;;;;;;;;;-0.80;99.90;;;;;;5114782;28;20019;-60
2022/03/09 01:44:27;;;;;;;;;;;-0.80;99.90;;;;;;5114589;28;19946;-60
2022/03/09 01:46:54;;;;;;;;;;;-0.70;99.90;;;;;;5115080;28;20010;-60
2022/03/09 01:49:20;;;;;;;;;;;-0.60;99.90;;;;;;5114884;28;19923;-60
2022/03/09 01:51:47;;;;;;;;;;;-0.50;99.90;;;;;;5114269;28;19977;-60
2022/03/09 01:54:13;;;;;;;;;;;-0.50;99.90;;;;;;5114975;28;19924;-60
2022/03/09 01:56:38;;;;;;;;;;;-0.60;99.90;;;;;;5112864;28;20263;-60
2022/03/09 01:59:05;;;;;;;;;;;-0.60;99.90;;;;;;5114969;28;19926;-60
2022/03/09 02:01:31;;;;;;;;;;;-0.60;99.90;;;;;;5095547;28;19966;-60
2022/03/09 02:03:57;;;;;;;;;;;-0.80;99.90;;;;;;5113365;28;19967;-60
2022/03/09 02:06:23;;;;;;;;;;;-0.90;99.90;;;;;;5114376;28;19971;-60
2022/03/09 02:11:33;;;;;;;;;;;-1.00;99.90;;;;;;5112857;28;19982;-60
2022/03/09 02:13:59;;;;;;;;;;;-1.10;99.90;;;;;;5114737;28;19971;-60
2022/03/09 02:16:25;;;;;;;;;;;-1.00;99.90;;;;;;5114729;28;20286;-60
2022/03/09 02:18:51;;;;;;;;;;;-1.00;99.90;;;;;;5113207;28;19949;-60
2022/03/09 02:21:18;;;;;;;;;;;-1.00;99.90;;;;;;5114274;28;19923;-60
2022/03/09 02:23:44;;;;;;;;;;;-0.90;99.90;;;;;;5114766;28;19920;-60
2022/03/09 02:26:10;;;;;;;;;;;-0.90;99.90;;;;;;5094676;28;20039;-60
2022/03/09 02:28:38;;;;;;;;;;;-0.90;99.90;;;;;;5114088;28;19924;-60
2022/03/09 02:31:04;;;;;;;;;;;-0.90;99.90;;;;;;5114561;28;20057;-60
2022/03/09 02:33:29;;;;;;;;;;;-0.90;99.90;;;;;;5113216;28;19985;-60
2022/03/09 02:35:55;;;;;;;;;;;-1.00;99.90;;;;;;5112063;28;19923;-60
2022/03/09 02:38:20;;;;;;;;;;;-1.00;99.90;;;;;;5113752;28;19931;-60
2022/03/09 02:40:46;;;;;;;;;;;-1.00;99.90;;;;;;5112747;28;20392;-60
2022/03/09 02:43:12;;;;;;;;;;;-1.00;99.90;;;;;;5114089;28;20045;-61
2022/03/09 02:45:37;;;;;;;;;;;-1.00;99.90;;;;;;5113570;28;19931;-60
2022/03/09 02:48:03;;;;;;;;;;;-0.90;99.90;;;;;;5112617;28;19950;-60
2022/03/09 02:50:29;;;;;;;;;;;-1.00;99.90;;;;;;5095385;28;19931;-60
2022/03/09 02:52:55;;;;;;;;;;;-1.00;99.90;;;;;;5113083;28;19924;-60
2022/03/09 02:55:20;;;;;;;;;;;-1.10;99.90;;;;;;5095574;28;19973;-60
2022/03/09 02:57:46;;;;;;;;;;;-1.20;99.90;;;;;;5095264;28;19931;-60
2022/03/09 03:00:12;;;;;;;;;;;-1.40;99.90;;;;;;5111281;28;19971;-60
2022/03/09 03:02:38;;;;;;;;;;;-1.60;99.90;;;;;;5094805;28;19924;-60
2022/03/09 03:05:05;;;;;;;;;;;-1.70;99.90;;;;;;5113485;28;20430;-60
2022/03/09 03:07:30;;;;;;;;;;;-1.80;99.90;;;;;;5113065;28;20023;-60
2022/03/09 03:09:56;;;;;;;;;;;-1.80;99.90;;;;;;5113551;28;20014;-60
2022/03/09 03:12:22;;;;;;;;;;;-1.80;99.90;;;;;;5094626;28;19924;-60
2022/03/09 03:14:47;;;;;;;;;;;-1.80;99.90;;;;;;5112947;28;20377;-60
2022/03/09 03:17:13;;;;;;;;;;;-1.80;99.90;;;;;;5095720;28;19928;-60
2022/03/09 03:19:39;;;;;;;;;;;-1.80;99.90;;;;;;5098629;28;19934;-60
2022/03/09 03:22:05;;;;;;;;;;;-1.80;99.90;;;;;;5112954;28;19923;-60
2022/03/09 03:24:30;;;;;;;;;;;-1.70;99.90;;;;;;5095728;28;19924;-60
2022/03/09 03:26:56;;;;;;;;;;;-1.70;99.90;;;;;;5075105;28;19924;-60
2022/03/09 03:29:22;;;;;;;;;;;-1.60;99.90;;;;;;5085911;28;19977;-60
2022/03/09 03:31:47;;;;;;;;;;;-1.50;99.90;;;;;;5113083;28;19924;-60
2022/03/09 03:34:13;;;;;;;;;;;-1.40;99.90;;;;;;5112719;28;19927;-60
2022/03/09 03:36:39;;;;;;;;;;;-1.30;99.90;;;;;;5110990;28;19931;-60
2022/03/09 03:39:04;;;;;;;;;;;-1.30;99.90;;;;;;5112738;28;19920;-60
2022/03/09 03:41:30;;;;;;;;;;;-1.20;99.90;;;;;;5113121;28;20269;-60
2022/03/09 03:43:56;;;;;;;;;;;-1.10;99.90;;;;;;5112653;28;19924;-60
2022/03/09 03:46:21;;;;;;;;;;;-1.10;99.90;;;;;;5113033;28;19919;-60
2022/03/09 03:48:47;;;;;;;;;;;-1.00;99.90;;;;;;5112955;28;19927;-60
2022/03/09 03:51:13;;;;;;;;;;;-1.00;99.90;;;;;;5112858;28;19934;-61
2022/03/09 03:53:38;;;;;;;;;;;-1.00;99.90;;;;;;5113585;28;19931;-60
2022/03/09 03:56:04;;;;;;;;;;;-0.90;99.90;;;;;;5093621;28;19925;-60
2022/03/09 03:58:30;;;;;;;;;;;-0.90;99.90;;;;;;5113336;28;20385;-60
2022/03/09 04:00:56;;;;;;;;;;;-0.90;99.90;;;;;;5113151;28;19935;-60
2022/03/09 04:03:21;;;;;;;;;;;-1.00;99.90;;;;;;5111584;28;19924;-60
2022/03/09 04:05:47;;;;;;;;;;;-1.00;99.90;;;;;;5095270;28;19924;-60
2022/03/09 04:08:13;;;;;;;;;;;-0.90;99.90;;;;;;5094643;28;19928;-60
2022/03/09 04:10:38;;;;;;;;;;;-0.90;99.90;;;;;;5113842;28;19924;-60
2022/03/09 04:13:04;;;;;;;;;;;-0.80;99.90;;;;;;5116445;28;20286;-60
2022/03/09 04:15:31;;;;;;;;;;;-0.80;99.90;;;;;;5117021;28;20377;-60
2022/03/09 04:17:57;;;;;;;;;;;-0.80;99.90;;;;;;5116069;28;19931;-60
2022/03/09 04:20:22;;;;;;;;;;;-0.90;99.90;;;;;;5098500;28;19928;-60
2022/03/09 04:22:48;;;;;;;;;;;-1.00;99.90;;;;;;5098231;28;19973;-60
2022/03/09 04:25:14;;;;;;;;;;;-1.10;99.90;;;;;;5115908;28;19923;-60
2022/03/09 04:27:39;;;;;;;;;;;-1.20;99.90;;;;;;5116736;28;19923;-60
2022/03/09 04:30:05;;;;;;;;;;;-1.30;99.90;;;;;;5116355;28;20331;-60
2022/03/09 04:32:32;;;;;;;;;;;-1.40;99.90;;;;;;5097197;28;19924;-60
2022/03/09 04:34:57;;;;;;;;;;;-1.40;99.90;;;;;;5116891;28;19928;-60
2022/03/09 04:37:23;;;;;;;;;;;-1.40;99.90;;;;;;5116442;28;19980;-60
2022/03/09 04:39:49;;;;;;;;;;;-1.40;99.90;;;;;;5114793;28;19984;-60
2022/03/09 04:42:15;;;;;;;;;;;-1.30;99.90;;;;;;5116324;28;19963;-60
2022/03/09 04:44:40;;;;;;;;;;;-1.30;99.90;;;;;;5115929;28;19924;-60
2022/03/09 04:47:06;;;;;;;;;;;-1.20;99.90;;;;;;5114896;28;19924;-60
2022/03/09 04:49:32;;;;;;;;;;;-1.20;99.90;;;;;;5116060;28;19924;-60
2022/03/09 04:51:57;;;;;;;;;;;-1.10;99.90;;;;;;5116352;28;19928;-60
2022/03/09 04:54:23;;;;;;;;;;;-1.10;99.90;;;;;;5115430;28;19997;-60
2022/03/09 04:56:48;;;;;;;;;;;-1.00;99.90;;;;;;5115989;28;20014;-60
2022/03/09 04:59:16;;;;;;;;;;;-1.00;99.90;;;;;;5116245;28;20410;-60
2022/03/09 05:01:42;;;;;;;;;;;-1.00;99.90;;;;;;5115259;28;19932;-60
2022/03/09 05:04:08;;;;;;;;;;;-1.00;99.90;;;;;;5116024;28;19931;-60
2022/03/09 05:06:34;;;;;;;;;;;-1.10;99.90;;;;;;5096637;28;19930;-60
2022/03/09 05:08:59;;;;;;;;;;;-1.20;99.90;;;;;;5115395;28;19927;-60
2022/03/09 05:11:25;;;;;;;;;;;-1.30;99.90;;;;;;5097631;28;19924;-60
2022/03/09 05:13:51;;;;;;;;;;;-1.50;99.90;;;;;;5115180;28;19923;-60
2022/03/09 05:16:16;;;;;;;;;;;-1.60;99.90;;;;;;5115332;28;20440;-60
2022/03/09 05:18:42;;;;;;;;;;;-1.70;99.90;;;;;;5116055;28;19963;-60
2022/03/09 05:21:08;;;;;;;;;;;-1.70;99.90;;;;;;5115049;28;19924;-60
2022/03/09 05:23:34;;;;;;;;;;;-1.80;99.90;;;;;;5114667;28;19924;-60
2022/03/09 05:26:00;;;;;;;;;;;-1.80;99.90;;;;;;5115607;28;19931;-60
2022/03/09 05:28:25;;;;;;;;;;;-1.90;99.90;;;;;;5096533;28;20293;-60
2022/03/09 05:30:51;;;;;;;;;;;-1.90;99.90;;;;;;5096959;28;20396;-60
2022/03/09 05:33:17;;;;;;;;;;;-2.00;99.90;;;;;;5115370;28;19992;-60
2022/03/09 05:35:44;;;;;;;;;;;-2.00;99.90;;;;;;5114833;28;19946;-60
2022/03/09 05:38:09;;;;;;;;;;;-2.00;99.90;;;;;;5115737;28;20362;-60
2022/03/09 05:40:35;;;;;;;;;;;-1.80;99.90;;;;;;5096821;28;19927;-60
2022/03/09 05:43:00;;;;;;;;;;;-1.80;99.90;;;;;;5114229;28;20400;-60
2022/03/09 05:45:26;;;;;;;;;;;-1.80;99.90;;;;;;5115073;28;19931;-60
2022/03/09 05:47:52;;;;;;;;;;;-1.70;99.90;;;;;;5096332;28;19924;-60
2022/03/09 05:50:18;;;;;;;;;;;-1.70;99.90;;;;;;5114175;28;20270;-60
2022/03/09 05:52:44;;;;;;;;;;;-1.70;99.90;;;;;;5115181;28;19920;-60
2022/03/09 05:55:09;;;;;;;;;;;-1.60;99.90;;;;;;5114854;28;19968;-60
2022/03/09 05:57:35;;;;;;;;;;;-1.60;99.90;;;;;;5114458;28;19931;-60
2022/03/09 06:00:02;;;;;;;;;;;-1.60;99.90;;;;;;5114364;28;19967;-60
2022/03/09 06:02:36;;;;;;;;;;;-1.50;99.90;;;;;;5113881;28;19924;-60
2022/03/09 06:05:02;;;;;;;;;;;-1.50;99.90;;;;;;5114510;28;19924;-60
2022/03/09 06:07:28;;;;;;;;;;;-1.40;99.90;;;;;;5114173;28;19932;-60
2022/03/09 06:09:53;;;;;;;;;;;-1.40;99.90;;;;;;5113265;28;19924;-60
2022/03/09 06:12:19;;;;;;;;;;;-1.40;99.90;;;;;;5114026;28;19981;-60
2022/03/09 06:14:45;;;;;;;;;;;-1.50;99.90;;;;;;5114628;28;19935;-60
2022/03/09 06:17:10;;;;;;;;;;;-1.60;99.90;;;;;;5113211;28;19924;-60
2022/03/09 06:19:36;;;;;;;;;;;-1.80;99.90;;;;;;5114221;28;20289;-60
2022/03/09 06:22:02;;;;;;;;;;;-1.90;99.90;;;;;;5112865;28;20258;-60
2022/03/09 06:24:27;;;;;;;;;;;-2.10;99.90;;;;;;5113311;28;19926;-60
2022/03/09 06:26:53;;;;;;;;;;;-2.10;99.90;;;;;;5114265;28;19935;-60
2022/03/09 06:29:21;;;;;;;;;;;-2.00;99.90;;;;;;5114359;28;19930;-60
2022/03/09 06:31:47;;;;;;;;;;;-1.90;99.90;;;;;;5113147;28;19923;-60
2022/03/09 06:34:13;;;;;;;;;;;-1.80;99.90;;;;;;5112932;28;19969;-60
2022/03/09 06:36:43;;;;;;;;;;;-1.70;99.90;;;;;;5096080;28;19923;-60
2022/03/09 06:39:09;;;;;;;;;;;-1.60;99.90;;;;;;5112521;28;19963;-60
2022/03/09 06:41:34;;;;;;;;;;;-1.50;99.90;;;;;;5114136;28;19969;-60
2022/03/09 06:44:00;;;;;;;;;;;-1.40;99.90;;;;;;5113883;28;19923;-60
2022/03/09 06:46:26;;;;;;;;;;;-1.30;99.90;;;;;;5093876;28;19927;-60
2022/03/09 06:48:51;;;;;;;;;;;-1.20;99.90;;;;;;5113510;28;19938;-60
2022/03/09 06:51:17;;;;;;;;;;;-1.00;99.90;;;;;;5113623;28;19931;-60
2022/03/09 06:53:45;;;;;;;;;;;-0.90;99.90;;;;;;5112549;28;19928;-60
2022/03/09 06:56:11;;;;;;;;;;;-0.70;99.90;;;;;;5095793;28;19952;-60
2022/03/09 06:58:37;;;;;;;;;;;-0.60;99.90;;;;;;5113482;28;20390;-60
2022/03/09 07:01:02;;;;;;;;;;;-0.50;99.90;;;;;;5093569;28;20349;-60
2022/03/09 07:03:28;;;;;;;;;;;-0.30;99.90;;;;;;5113472;28;19920;-60
2022/03/09 07:05:54;;;;;;;;;;;-0.20;99.90;;;;;;5112810;28;19930;-60
2022/03/09 07:08:20;;;;;;;;;;;-0.20;99.90;;;;;;5112822;28;19923;-60
2022/03/09 07:10:46;;;;;;;;;;;-0.10;99.90;;;;;;5109175;28;20499;-61
2022/03/09 07:13:11;;;;;;;;;;;0.00;99.90;;;;;;5112275;28;20002;-60
2022/03/09 07:15:37;;;;;;;;;;;0.20;99.90;;;;;;5094400;28;19923;-60
2022/03/09 07:18:03;;;;;;;;;;;0.40;99.90;;;;;;5111969;28;19981;-60
2022/03/09 07:20:29;;;;;;;;;;;0.60;99.90;;;;;;5091293;28;19924;-60
2022/03/09 07:22:55;;;;;;;;;;;0.70;99.90;;;;;;5113277;28;19924;-60
2022/03/09 07:25:20;;;;;;;;;;;1.00;99.90;;;;;;5113365;28;19934;-60
2022/03/09 07:27:46;;;;;;;;;;;1.20;99.90;;;;;;5093173;28;20361;-60
2022/03/09 07:30:12;;;;;;;;;;;1.40;99.90;;;;;;5112684;28;19924;-60
2022/03/09 07:32:38;;;;;;;;;;;1.60;99.90;;;;;;5113429;28;20348;-60
2022/03/09 07:35:04;;;;;;;;;;;1.70;99.90;;;;;;5112528;28;20063;-60
2022/03/09 07:37:30;;;;;;;;;;;2.00;99.90;;;;;;5111906;28;19935;-60
2022/03/09 07:39:55;;;;;;;;;;;2.70;99.90;;;;;;5112607;28;19932;-60
2022/03/09 07:42:21;;;;;;;;;;;2.30;99.90;;;;;;5112711;28;19977;-60
2022/03/09 07:44:48;;;;;;;;;;;2.50;99.90;;;;;;5112094;28;19978;-60
2022/03/09 07:47:13;;;;;;;;;;;2.60;99.90;;;;;;5117152;28;19924;-60
2022/03/09 07:49:39;;;;;;;;;;;2.70;99.90;;;;;;5104173;28;19981;-60
2022/03/09 07:52:05;;;;;;;;;;;3.10;99.90;;;;;;5096303;28;19936;-60
2022/03/09 07:54:31;;;;;;;;;;;3.10;99.90;;;;;;5087060;28;19968;-61
2022/03/09 07:56:57;;;;;;;;;;;3.20;99.90;;;;;;5116619;28;19924;-61
2022/03/09 07:59:23;;;;;;;;;;;3.30;99.90;;;;;;5103310;28;20205;-61
2022/03/09 08:01:52;;;;;;;;;;;3.40;99.90;;;;;;5116544;28;20322;-61
2022/03/09 08:04:19;;;;;;;;;;;3.70;99.90;;;;;;5113358;28;19924;-61
2022/03/09 08:06:46;;;;;;;;;;;3.80;99.90;;;;;;5098451;28;19924;-61
2022/03/09 08:09:12;;;;;;;;;;;4.00;99.90;;;;;;5115864;28;19949;-61
2022/03/09 08:11:38;;;;;;;;;;;4.10;99.90;;;;;;5115707;28;19924;-61
2022/03/09 08:14:04;;;;;;;;;;;4.20;99.90;;;;;;5115762;28;20408;-61
2022/03/09 08:16:29;;;;;;;;;;;4.40;99.90;;;;;;5115759;28;19923;-61
2022/03/09 08:18:55;;;;;;;;;;;4.60;99.90;;;;;;5097682;28;19920;-61
2022/03/09 08:21:21;;;;;;;;;;;4.70;99.90;;;;;;5103395;28;19928;-61
2022/03/09 08:23:48;;;;;;;;;;;4.90;99.90;;;;;;5105342;28;20302;-61
2022/03/09 08:26:15;;;;;;;;;;;5.00;99.90;;;;;;5097770;28;19930;-61
2022/03/09 08:28:40;;;;;;;;;;;5.20;99.90;;;;;;5115717;28;19932;-61
2022/03/09 08:31:06;;;;;;;;;;;5.30;99.90;;;;;;5114702;28;19923;-61
2022/03/09 08:33:32;;;;;;;;;;;5.40;99.90;;;;;;5116601;28;20018;-61
2022/03/09 08:35:58;;;;;;;;;;;5.60;99.90;;;;;;5116309;28;19928;-61
2022/03/09 08:38:23;;;;;;;;;;;5.70;99.90;;;;;;5111633;28;19969;-61
2022/03/09 08:40:49;;;;;;;;;;;5.90;99.90;;;;;;5114414;28;20270;-61
2022/03/09 08:43:15;;;;;;;;;;;6.00;99.90;;;;;;5115686;28;20347;-61
2022/03/09 08:45:40;;;;;;;;;;;6.30;99.90;;;;;;5115252;28;20439;-61
2022/03/09 08:48:06;;;;;;;;;;;6.40;99.90;;;;;;5114827;28;19977;-61
2022/03/09 08:50:32;;;;;;;;;;;6.50;99.90;;;;;;5116329;28;20263;-61
2022/03/09 08:52:58;;;;;;;;;;;6.60;99.90;;;;;;5107558;28;20394;-61
2022/03/09 08:55:24;;;;;;;;;;;6.70;99.90;;;;;;5115438;28;20366;-61
2022/03/09 08:57:49;;;;;;;;;;;6.80;99.90;;;;;;5111199;28;19935;-61
2022/03/09 09:00:15;;;;;;;;;;;7.00;99.90;;;;;;5101297;28;19931;-61
2022/03/09 09:02:42;;;;;;;;;;;7.20;99.90;;;;;;5100132;28;19924;-61
2022/03/09 09:05:08;;;;;;;;;;;7.30;99.90;;;;;;5107610;28;19924;-61
2022/03/09 09:07:33;;;;;;;;;;;7.40;99.80;;;;;;5079392;28;20449;-61
2022/03/09 09:09:59;;;;;;;;;;;7.60;99.60;;;;;;5106293;28;20022;-61
2022/03/09 09:12:25;;;;;;;;;;;7.70;99.70;;;;;;5106012;28;20054;-61
2022/03/09 09:14:51;;;;;;;;;;;7.80;99.60;;;;;;5113856;28;19924;-61
2022/03/09 09:17:17;;;;;;;;;;;8.00;95.90;;;;;;5115550;28;20002;-61
2022/03/09 09:19:42;;;;;;;;;;;8.10;98.10;;;;;;5114369;28;20213;-61
2022/03/09 09:22:08;;;;;;;;;;;8.20;97.90;;;;;;5114461;28;19993;-62
2022/03/09 09:24:34;;;;;;;;;;;8.40;96.90;;;;;;5115986;28;19930;-61
2022/03/09 09:27:01;;;;;;;;;;;8.30;93.70;;;;;;5114238;28;19924;-61
2022/03/09 09:29:27;;;;;;;;;;;8.60;95.70;;;;;;5115086;28;19930;-61
2022/03/09 09:31:53;;;;;;;;;;;8.60;89.20;;;;;;5114643;28;19927;-61
2022/03/09 09:34:19;;;;;;;;;;;8.40;84.40;;;;;;5114521;28;19959;-61
2022/03/09 09:36:46;;;;;;;;;;;8.00;77.90;;;;;;5114406;28;20392;-61
2022/03/09 09:39:14;;;;;;;;;;;8.00;78.80;;;;;;5114767;28;20398;-61
2022/03/09 09:41:44;;;;;;;;;;;8.10;78.80;;;;;;5113371;28;19963;-61
2022/03/09 09:44:10;;;;;;;;;;;8.30;83.00;;;;;;5114850;28;20289;-61
2022/03/09 09:46:39;;;;;;;;;;;8.30;82.10;;;;;;5114014;28;19920;-61
2022/03/09 09:49:06;;;;;;;;;;;8.70;77.70;;;;;;5098585;28;19924;-61
2022/03/09 09:51:32;;;;;;;;;;;8.80;78.50;;;;;;5114932;28;20437;-61
2022/03/09 09:53:58;;;;;;;;;;;8.80;75.20;;;;;;5099633;28;19963;-61
2022/03/09 09:56:24;;;;;;;;;;;8.90;72.50;;;;;;5108792;28;19931;-61
2022/03/09 09:58:50;;;;;;;;;;;8.70;71.80;;;;;;5112949;28;20318;-61
2022/03/09 10:01:16;;;;;;;;;;;8.60;70.10;;;;;;5114197;28;19924;-61
2022/03/09 10:03:41;;;;;;;;;;;8.70;71.90;;;;;;5114211;28;20389;-61
2022/03/09 10:06:07;;;;;;;;;;;8.80;68.50;;;;;;5096045;28;19931;-61
2022/03/09 10:08:33;;;;;;;;;;;9.10;74.30;;;;;;5114621;28;19928;-61
2022/03/09 10:11:01;;;;;;;;;;;9.20;69.70;;;;;;5110202;28;19934;-61
2022/03/09 10:13:29;;;;;;;;;;;9.30;71.60;;;;;;5112397;28;21218;-61
2022/03/09 10:16:10;;;;;;;;;;;9.60;72.20;;;;;;5113502;28;19946;-61
2022/03/09 10:18:36;;;;;;;;;;;10.20;71.70;;;;;;5093833;28;20443;-62
2022/03/09 10:21:10;;;;;;;;;;;10.60;66.10;;;;;;5107292;28;19923;-61
2022/03/09 10:23:56;;;;;;;;;;;9.90;58.00;;;;;;5111077;28;20007;-61
2022/03/09 10:26:23;;;;;;;;;;;9.60;58.60;;;;;;5112897;28;19924;-61
2022/03/09 10:29:00;;;;;;;;;;;10.10;61.70;;;;;;5095105;28;19947;-61
2022/03/09 10:31:30;;;;;;;;;;;10.10;59.90;;;;;;5112520;28;19974;-61
2022/03/09 10:34:04;;;;;;;;;;;10.10;58.70;;;;;;5113285;28;19931;-61
2022/03/09 10:36:29;;;;;;;;;;;10.50;59.00;;;;;;5113342;28;20388;-61
2022/03/09 10:39:08;;;;;;;;;;;10.60;58.70;;;;;;5113139;28;20018;-61
2022/03/09 10:41:34;;;;;;;;;;;11.10;57.40;;;;;;5113074;28;19931;-61
2022/03/09 10:44:00;;;;;;;;;;;11.60;54.00;;;;;;5112954;28;19924;-61
2022/03/09 10:46:26;;;;;;;;;;;12.30;54.30;;;;;;5113914;28;19927;-61
2022/03/09 10:49:00;;;;;;;;;;;12.70;53.10;;;;;;5113292;28;19931;-61
2022/03/09 10:51:34;;;;;;;;;;;13.00;50.90;;;;;;5112392;28;19923;-61
2022/03/09 10:54:01;;;;;;;;;;;12.40;51.10;;;;;;5113996;28;19919;-61
2022/03/09 10:56:27;;;;;;;;;;;12.20;53.80;;;;;;5096480;28;20387;-61
2022/03/09 10:58:53;;;;;;;;;;;12.20;52.80;;;;;;5110231;28;20018;-61
2022/03/09 11:01:19;;;;;;;;;;;12.60;53.20;;;;;;5113266;28;19920;-61
2022/03/09 11:03:45;;;;;;;;;;;12.30;51.20;;;;;;5113555;28;19923;-61
2022/03/09 11:06:11;;;;;;;;;;;11.80;54.30;;;;;;5112350;28;19919;-61
2022/03/09 11:08:37;;;;;;;;;;;12.00;52.90;;;;;;5112416;28;19924;-62
2022/03/09 11:11:04;;;;;;;;;;;12.20;54.40;;;;;;5113403;28;19928;-62
2022/03/09 11:13:34;;;;;;;;;;;12.30;55.00;;;;;;5112166;28;20012;-62
2022/03/09 11:16:00;;;;;;;;;;;12.60;55.90;;;;;;5112971;28;19930;-61
2022/03/09 11:18:28;;;;;;;;;;;12.70;55.10;;;;;;5113013;28;19924;-62
2022/03/09 11:20:55;;;;;;;;;;;12.60;51.00;;;;;;5111502;28;20446;-62
2022/03/09 11:23:21;;;;;;;;;;;12.60;50.90;;;;;;5113553;28;19924;-61
2022/03/09 11:26:06;;;;;;;;;;;12.70;52.50;;;;;;5094637;28;19930;-62
2022/03/09 11:28:34;;;;;;;;;;;13.50;52.80;;;;;;5092495;28;19973;-61
2022/03/09 11:31:04;;;;;;;;;;;14.20;50.50;;;;;;5092805;28;19924;-62
2022/03/09 11:33:36;;;;;;;;;;;14.90;48.60;;;;;;5097057;28;19963;-63
2022/03/09 11:36:02;;;;;;;;;;;15.20;47.00;;;;;;5112699;28;20503;-62
2022/03/09 11:38:32;;;;;;;;;;;15.40;47.10;;;;;;5113186;28;19931;-62
2022/03/09 11:41:14;;;;;;;;;;;15.30;46.50;;;;;;5111946;28;19931;-62
2022/03/09 11:43:40;;;;;;;;;;;15.40;46.40;;;;;;5112973;28;19930;-62
2022/03/09 11:46:06;;;;;;;;;;;15.30;47.30;;;;;;5095163;28;19919;-62
2022/03/09 11:48:49;;;;;;;;;;;15.00;47.90;;;;;;5112021;28;19924;-62
2022/03/09 11:51:14;;;;;;;;;;;14.70;49.00;;;;;;5113453;28;20384;-62
2022/03/09 11:53:41;;;;;;;;;;;14.50;50.30;;;;;;5112996;28;19976;-62
2022/03/09 11:56:20;;;;;;;;;;;14.30;50.00;;;;;;5112061;28;19928;-62
2022/03/09 11:59:06;;;;;;;;;;;14.10;50.90;;;;;;5110372;28;19948;-60
2022/03/09 12:01:52;;;;;;;;;;;14.20;51.30;;;;;;5091017;28;19939;-61
2022/03/09 12:04:38;;;;;;;;;;;14.20;52.40;;;;;;5110742;28;19931;-60
2022/03/09 12:07:03;;;;;;;;;;;14.50;52.10;;;;;;5094741;28;19947;-60
2022/03/09 12:09:59;;;;;;;;;;;14.70;51.70;;;;;;5112160;28;19930;-60
2022/03/09 12:12:26;;;;;;;;;;;14.60;49.50;;;;;;5112201;28;19923;-60
2022/03/09 12:15:02;;;;;;;;;;;14.50;49.60;;;;;;5112970;28;20293;-60
2022/03/09 12:17:38;;;;;;;;;;;14.80;50.40;;;;;;5112392;28;20382;-60
2022/03/09 12:20:15;;;;;;;;;;;15.30;49.80;;;;;;5094157;28;20274;-60
2022/03/09 12:22:56;;;;;;;;;;;15.60;47.90;;;;;;5112427;28;19972;-60
2022/03/09 12:25:34;;;;;;;;;;;15.60;48.70;;;;;;5112570;28;19924;-60
2022/03/09 12:28:19;;;;;;;;;;;15.40;46.50;;;;;;5112727;28;20019;-60
2022/03/09 12:30:47;;;;;;;;;;;15.20;46.90;;;;;;5112349;28;19924;-60
2022/03/09 12:33:21;;;;;;;;;;;15.10;47.60;;;;;;5115329;28;19928;-60
2022/03/09 12:35:47;;;;;;;;;;;15.20;47.60;;;;;;5116500;28;19976;-60
2022/03/09 12:38:12;;;;;;;;;;;15.30;47.70;;;;;;5115689;28;19925;-61
2022/03/09 12:40:38;;;;;;;;;;;15.30;48.00;;;;;;5116446;28;20084;-60
2022/03/09 12:43:05;;;;;;;;;;;15.30;46.70;;;;;;5116421;28;19968;-60
2022/03/09 12:45:49;;;;;;;;;;;15.30;48.10;;;;;;5115440;28;19924;-60
2022/03/09 12:48:17;;;;;;;;;;;15.30;48.20;;;;;;5116041;28;20280;-60
2022/03/09 12:50:42;;;;;;;;;;;15.20;48.30;;;;;;5080369;28;20400;-60
2022/03/09 12:53:09;;;;;;;;;;;15.10;48.40;;;;;;5097438;28;19923;-61
2022/03/09 12:55:36;;;;;;;;;;;15.10;49.60;;;;;;5115386;28;20009;-60
2022/03/09 12:58:02;;;;;;;;;;;15.40;47.90;;;;;;5114991;28;20019;-60
2022/03/09 13:00:30;;;;;;;;;;;15.90;46.30;;;;;;5115644;28;19959;-60
2022/03/09 13:03:00;;;;;;;;;;;16.30;45.00;;;;;;5115180;28;19959;-60
2022/03/09 13:05:28;;;;;;;;;;;16.70;44.20;;;;;;5114818;28;19924;-60
2022/03/09 13:07:57;;;;;;;;;;;17.30;42.20;;;;;;5096987;28;20018;-60
2022/03/09 13:10:24;;;;;;;;;;;17.30;43.10;;;;;;5115171;28;19924;-60
2022/03/09 13:12:56;;;;;;;;;;;17.70;42.10;;;;;;5114470;28;20301;-60
2022/03/09 13:15:33;;;;;;;;;;;18.30;39.70;;;;;;5116029;28;19928;-60
2022/03/09 13:17:59;;;;;;;;;;;18.70;39.90;;;;;;5115656;28;19920;-61
2022/03/09 13:20:24;;;;;;;;;;;19.00;39.30;;;;;;5115053;28;20404;-60
2022/03/09 13:22:50;;;;;;;;;;;19.10;39.40;;;;;;5115645;28;19924;-60
2022/03/09 13:25:16;;;;;;;;;;;19.20;38.90;;;;;;5097146;28;19919;-60
2022/03/09 13:27:42;;;;;;;;;;;19.30;38.60;;;;;;5114488;28;20023;-61
2022/03/09 13:30:16;;;;;;;;;;;19.50;38.10;;;;;;5114897;28;19924;-61
2022/03/09 13:32:42;;;;;;;;;;;19.50;39.10;;;;;;5114464;28;19923;-61
2022/03/09 13:35:09;;;;;;;;;;;19.20;39.80;;;;;;5095956;28;19924;-61
2022/03/09 13:37:36;;;;;;;;;;;18.50;38.80;;;;;;5114834;28;19927;-61
2022/03/09 13:40:02;;;;;;;;;;;17.90;39.20;;;;;;5114017;28;19924;-60
2022/03/09 13:42:34;;;;;;;;;;;17.30;39.30;;;;;;5114563;28;19969;-60
2022/03/09 13:45:02;;;;;;;;;;;17.20;40.10;;;;;;5110832;28;19931;-61
2022/03/09 13:47:28;;;;;;;;;;;17.40;40.70;;;;;;5113596;28;19928;-60
2022/03/09 13:49:54;;;;;;;;;;;17.30;41.60;;;;;;5114580;28;20369;-60
2022/03/09 13:52:30;;;;;;;;;;;17.10;41.40;;;;;;5115187;28;19931;-60
2022/03/09 13:54:58;;;;;;;;;;;17.00;41.60;;;;;;5113741;28;19923;-61
2022/03/09 13:57:32;;;;;;;;;;;16.90;41.30;;;;;;5114860;28;19935;-61
2022/03/09 13:59:59;;;;;;;;;;;16.60;41.00;;;;;;5115038;28;19924;-61
2022/03/09 14:02:25;;;;;;;;;;;16.50;42.30;;;;;;5114148;28;19968;-61
2022/03/09 14:04:51;;;;;;;;;;;16.00;42.40;;;;;;5114886;28;19920;-60
2022/03/09 14:07:18;;;;;;;;;;;15.80;43.20;;;;;;5114441;28;19924;-60
2022/03/09 14:10:02;;;;;;;;;;;15.80;43.70;;;;;;5113550;28;19935;-60
2022/03/09 14:12:28;;;;;;;;;;;15.70;42.80;;;;;;5096319;28;19924;-60
2022/03/09 14:14:54;;;;;;;;;;;15.70;43.10;;;;;;5114411;28;20095;-60
2022/03/09 14:17:19;;;;;;;;;;;15.50;42.60;;;;;;5113835;28;19924;-61
2022/03/09 14:19:45;;;;;;;;;;;15.50;42.70;;;;;;5114359;28;19923;-61
2022/03/09 14:22:11;;;;;;;;;;;15.30;42.60;;;;;;5085395;28;19978;-61
2022/03/09 14:24:36;;;;;;;;;;;15.40;43.80;;;;;;5109841;28;19945;-61